sensor_id;sensor_type;location;lat;lon;timestamp;P1;durP1;ratioP1;P2;durP2;ratioP2
33403;SDS011;19751;40.274;18.268;2023-02-22T00:00:28;45.40;;;28.13;;
33403;SDS011;19751;40.274;18.268;2023-02-22T00:05:42;48.33;;;28.95;;
33403;SDS011;19751;40.274;18.268;2023-02-22T00:08:11;46.95;;;29.95;;
33403;SDS011;19751;40.274;18.268;2023-02-22T00:10:42;45.30;;;29.25;;
33403;SDS011;19751;40.274;18.268;2023-02-22T00:13:08;49.40;;;32.63;;
33403;SDS011;19751;40.274;18.268;2023-02-22T00:15:37;53.60;;;34.25;;
33403;SDS011;19751;40.274;18.268;2023-02-22T00:18:05;53.30;;;34.28;;
33403;SDS011;19751;40.274;18.268;2023-02-22T00:20:34;57.97;;;35.72;;
33403;SDS011;19751;40.274;18.268;2023-02-22T00:23:03;54.38;;;35.85;;
33403;SDS011;19751;40.274;18.268;2023-02-22T00:25:31;57.70;;;35.20;;
33403;SDS011;19751;40.274;18.268;2023-02-22T00:27:57;54.53;;;35.15;;
33403;SDS011;19751;40.274;18.268;2023-02-22T00:30:24;50.08;;;34.20;;
33403;SDS011;19751;40.274;18.268;2023-02-22T00:32:51;56.30;;;35.88;;
33403;SDS011;19751;40.274;18.268;2023-02-22T00:35:19;52.83;;;35.58;;
33403;SDS011;19751;40.274;18.268;2023-02-22T00:37:47;55.83;;;35.70;;
33403;SDS011;19751;40.274;18.268;2023-02-22T00:40:21;59.78;;;37.50;;
33403;SDS011;19751;40.274;18.268;2023-02-22T00:42:48;51.13;;;34.13;;
33403;SDS011;19751;40.274;18.268;2023-02-22T00:45:16;50.55;;;33.30;;
33403;SDS011;19751;40.274;18.268;2023-02-22T00:47:44;49.85;;;32.22;;
33403;SDS011;19751;40.274;18.268;2023-02-22T00:50:10;43.70;;;29.92;;
33403;SDS011;19751;40.274;18.268;2023-02-22T00:52:36;45.53;;;30.70;;
33403;SDS011;19751;40.274;18.268;2023-02-22T00:55:03;47.63;;;30.20;;
33403;SDS011;19751;40.274;18.268;2023-02-22T00:57:30;42.58;;;29.65;;
33403;SDS011;19751;40.274;18.268;2023-02-22T00:59:58;47.30;;;28.58;;
33403;SDS011;19751;40.274;18.268;2023-02-22T01:02:23;48.33;;;31.05;;
33403;SDS011;19751;40.274;18.268;2023-02-22T01:04:49;50.45;;;29.65;;
33403;SDS011;19751;40.274;18.268;2023-02-22T01:07:14;48.22;;;30.92;;
33403;SDS011;19751;40.274;18.268;2023-02-22T01:09:40;42.63;;;28.65;;
33403;SDS011;19751;40.274;18.268;2023-02-22T01:12:06;43.85;;;29.08;;
33403;SDS011;19751;40.274;18.268;2023-02-22T01:14:32;53.75;;;31.25;;
33403;SDS011;19751;40.274;18.268;2023-02-22T01:16:57;49.42;;;29.75;;
33403;SDS011;19751;40.274;18.268;2023-02-22T01:19:23;47.63;;;29.73;;
33403;SDS011;19751;40.274;18.268;2023-02-22T01:21:48;47.80;;;30.25;;
33403;SDS011;19751;40.274;18.268;2023-02-22T01:24:15;46.83;;;29.40;;
33403;SDS011;19751;40.274;18.268;2023-02-22T01:26:42;49.17;;;29.65;;
33403;SDS011;19751;40.274;18.268;2023-02-22T01:29:11;48.15;;;28.77;;
33403;SDS011;19751;40.274;18.268;2023-02-22T01:31:39;54.42;;;33.22;;
33403;SDS011;19751;40.274;18.268;2023-02-22T01:34:15;58.60;;;35.88;;
33403;SDS011;19751;40.274;18.268;2023-02-22T01:36:41;59.13;;;36.15;;
33403;SDS011;19751;40.274;18.268;2023-02-22T01:39:07;46.60;;;32.10;;
33403;SDS011;19751;40.274;18.268;2023-02-22T01:41:34;48.20;;;30.45;;
33403;SDS011;19751;40.274;18.268;2023-02-22T01:46:54;43.72;;;28.98;;
33403;SDS011;19751;40.274;18.268;2023-02-22T01:49:20;47.30;;;32.20;;
33403;SDS011;19751;40.274;18.268;2023-02-22T01:51:50;48.83;;;31.75;;
33403;SDS011;19751;40.274;18.268;2023-02-22T01:54:33;52.80;;;33.15;;
33403;SDS011;19751;40.274;18.268;2023-02-22T01:57:04;50.58;;;32.38;;
33403;SDS011;19751;40.274;18.268;2023-02-22T01:59:59;51.80;;;32.33;;
33403;SDS011;19751;40.274;18.268;2023-02-22T02:02:40;54.25;;;33.05;;
33403;SDS011;19751;40.274;18.268;2023-02-22T02:05:10;56.03;;;32.38;;
33403;SDS011;19751;40.274;18.268;2023-02-22T02:07:37;59.45;;;35.65;;
33403;SDS011;19751;40.274;18.268;2023-02-22T02:10:05;54.88;;;36.00;;
33403;SDS011;19751;40.274;18.268;2023-02-22T02:12:39;58.45;;;37.75;;
33403;SDS011;19751;40.274;18.268;2023-02-22T02:17:53;132.38;;;66.25;;
33403;SDS011;19751;40.274;18.268;2023-02-22T02:37:01;59.83;;;37.35;;
33403;SDS011;19751;40.274;18.268;2023-02-22T02:48:04;58.10;;;38.80;;
33403;SDS011;19751;40.274;18.268;2023-02-22T02:50:38;56.65;;;36.83;;
33403;SDS011;19751;40.274;18.268;2023-02-22T02:53:08;55.50;;;37.10;;
33403;SDS011;19751;40.274;18.268;2023-02-22T02:55:35;55.35;;;36.40;;
33403;SDS011;19751;40.274;18.268;2023-02-22T02:58:04;53.97;;;35.85;;
33403;SDS011;19751;40.274;18.268;2023-02-22T03:00:32;57.90;;;35.15;;
33403;SDS011;19751;40.274;18.268;2023-02-22T03:06:15;49.90;;;32.55;;
33403;SDS011;19751;40.274;18.268;2023-02-22T03:11:53;47.25;;;32.08;;
33403;SDS011;19751;40.274;18.268;2023-02-22T03:14:33;43.85;;;29.33;;
33403;SDS011;19751;40.274;18.268;2023-02-22T03:17:17;51.38;;;32.75;;
33403;SDS011;19751;40.274;18.268;2023-02-22T03:20:05;45.58;;;31.63;;
33403;SDS011;19751;40.274;18.268;2023-02-22T03:22:49;45.13;;;28.45;;
33403;SDS011;19751;40.274;18.268;2023-02-22T03:25:23;42.63;;;30.27;;
33403;SDS011;19751;40.274;18.268;2023-02-22T03:27:56;47.65;;;31.25;;
33403;SDS011;19751;40.274;18.268;2023-02-22T03:30:30;43.15;;;30.17;;
33403;SDS011;19751;40.274;18.268;2023-02-22T03:33:10;40.90;;;28.35;;
33403;SDS011;19751;40.274;18.268;2023-02-22T03:35:46;39.22;;;27.05;;
33403;SDS011;19751;40.274;18.268;2023-02-22T03:38:20;40.15;;;26.20;;
33403;SDS011;19751;40.274;18.268;2023-02-22T03:40:51;47.15;;;28.27;;
33403;SDS011;19751;40.274;18.268;2023-02-22T03:43:28;40.83;;;27.25;;
33403;SDS011;19751;40.274;18.268;2023-02-22T03:45:58;44.92;;;27.92;;
33403;SDS011;19751;40.274;18.268;2023-02-22T03:51:11;43.65;;;29.08;;
33403;SDS011;19751;40.274;18.268;2023-02-22T03:53:39;42.55;;;28.25;;
33403;SDS011;19751;40.274;18.268;2023-02-22T03:56:06;40.95;;;27.38;;
33403;SDS011;19751;40.274;18.268;2023-02-22T03:58:35;43.95;;;29.65;;
33403;SDS011;19751;40.274;18.268;2023-02-22T04:01:03;45.58;;;28.52;;
33403;SDS011;19751;40.274;18.268;2023-02-22T04:03:28;40.45;;;27.08;;
33403;SDS011;19751;40.274;18.268;2023-02-22T04:05:54;38.55;;;28.02;;
33403;SDS011;19751;40.274;18.268;2023-02-22T04:08:19;42.13;;;28.05;;
33403;SDS011;19751;40.274;18.268;2023-02-22T04:10:45;37.92;;;26.45;;
33403;SDS011;19751;40.274;18.268;2023-02-22T04:13:10;40.05;;;25.85;;
33403;SDS011;19751;40.274;18.268;2023-02-22T04:15:38;37.58;;;25.27;;
33403;SDS011;19751;40.274;18.268;2023-02-22T04:18:04;37.47;;;25.23;;
33403;SDS011;19751;40.274;18.268;2023-02-22T04:20:29;41.50;;;26.40;;
33403;SDS011;19751;40.274;18.268;2023-02-22T04:22:55;41.90;;;27.02;;
33403;SDS011;19751;40.274;18.268;2023-02-22T04:25:21;40.05;;;25.88;;
33403;SDS011;19751;40.274;18.268;2023-02-22T04:27:47;39.90;;;25.00;;
33403;SDS011;19751;40.274;18.268;2023-02-22T04:30:15;38.47;;;24.25;;
33403;SDS011;19751;40.274;18.268;2023-02-22T04:32:43;32.42;;;21.15;;
33403;SDS011;19751;40.274;18.268;2023-02-22T04:35:09;32.42;;;20.95;;
33403;SDS011;19751;40.274;18.268;2023-02-22T04:37:34;31.00;;;20.15;;
33403;SDS011;19751;40.274;18.268;2023-02-22T04:40:01;33.30;;;22.02;;
33403;SDS011;19751;40.274;18.268;2023-02-22T04:42:31;34.88;;;23.30;;
33403;SDS011;19751;40.274;18.268;2023-02-22T04:44:56;38.25;;;25.50;;
33403;SDS011;19751;40.274;18.268;2023-02-22T04:47:22;40.05;;;25.90;;
33403;SDS011;19751;40.274;18.268;2023-02-22T04:49:47;39.72;;;25.38;;
33403;SDS011;19751;40.274;18.268;2023-02-22T04:52:13;40.17;;;25.60;;
33403;SDS011;19751;40.274;18.268;2023-02-22T04:54:40;44.67;;;26.98;;
33403;SDS011;19751;40.274;18.268;2023-02-22T04:57:05;38.90;;;25.00;;
33403;SDS011;19751;40.274;18.268;2023-02-22T04:59:31;41.38;;;27.83;;
33403;SDS011;19751;40.274;18.268;2023-02-22T05:01:57;43.47;;;28.33;;
33403;SDS011;19751;40.274;18.268;2023-02-22T05:04:23;42.08;;;26.20;;
33403;SDS011;19751;40.274;18.268;2023-02-22T05:06:48;38.88;;;27.23;;
33403;SDS011;19751;40.274;18.268;2023-02-22T05:09:14;37.22;;;25.80;;
33403;SDS011;19751;40.274;18.268;2023-02-22T05:11:39;43.67;;;28.02;;
33403;SDS011;19751;40.274;18.268;2023-02-22T05:14:05;46.97;;;27.63;;
33403;SDS011;19751;40.274;18.268;2023-02-22T05:16:30;43.33;;;27.90;;
33403;SDS011;19751;40.274;18.268;2023-02-22T05:18:56;43.28;;;26.20;;
33403;SDS011;19751;40.274;18.268;2023-02-22T05:21:22;40.70;;;26.13;;
33403;SDS011;19751;40.274;18.268;2023-02-22T05:23:47;44.28;;;27.33;;
33403;SDS011;19751;40.274;18.268;2023-02-22T05:26:13;40.65;;;26.35;;
33403;SDS011;19751;40.274;18.268;2023-02-22T05:28:38;39.63;;;25.88;;
33403;SDS011;19751;40.274;18.268;2023-02-22T05:31:04;40.67;;;26.27;;
33403;SDS011;19751;40.274;18.268;2023-02-22T05:33:31;38.47;;;25.95;;
33403;SDS011;19751;40.274;18.268;2023-02-22T05:35:57;38.20;;;24.98;;
33403;SDS011;19751;40.274;18.268;2023-02-22T05:38:22;41.63;;;27.88;;
33403;SDS011;19751;40.274;18.268;2023-02-22T05:40:48;38.72;;;26.20;;
33403;SDS011;19751;40.274;18.268;2023-02-22T05:43:14;40.15;;;26.02;;
33403;SDS011;19751;40.274;18.268;2023-02-22T05:45:40;41.42;;;27.17;;
33403;SDS011;19751;40.274;18.268;2023-02-22T05:48:06;41.72;;;25.45;;
33403;SDS011;19751;40.274;18.268;2023-02-22T05:50:32;41.97;;;27.02;;
33403;SDS011;19751;40.274;18.268;2023-02-22T05:52:57;42.83;;;26.17;;
33403;SDS011;19751;40.274;18.268;2023-02-22T05:55:23;42.17;;;27.73;;
33403;SDS011;19751;40.274;18.268;2023-02-22T05:57:49;45.25;;;28.52;;
33403;SDS011;19751;40.274;18.268;2023-02-22T06:00:17;50.67;;;29.25;;
33403;SDS011;19751;40.274;18.268;2023-02-22T06:02:58;39.83;;;26.65;;
33403;SDS011;19751;40.274;18.268;2023-02-22T06:05:32;44.53;;;28.67;;
33403;SDS011;19751;40.274;18.268;2023-02-22T06:07:58;43.58;;;26.77;;
33403;SDS011;19751;40.274;18.268;2023-02-22T06:10:23;43.30;;;26.58;;
33403;SDS011;19751;40.274;18.268;2023-02-22T06:12:50;42.38;;;26.13;;
33403;SDS011;19751;40.274;18.268;2023-02-22T06:15:17;43.70;;;26.60;;
33403;SDS011;19751;40.274;18.268;2023-02-22T06:17:43;43.38;;;27.30;;
33403;SDS011;19751;40.274;18.268;2023-02-22T06:20:10;41.35;;;28.33;;
33403;SDS011;19751;40.274;18.268;2023-02-22T06:22:37;68.03;;;39.50;;
33403;SDS011;19751;40.274;18.268;2023-02-22T06:25:05;145.55;;;75.35;;
33403;SDS011;19751;40.274;18.268;2023-02-22T06:27:32;116.40;;;65.88;;
33403;SDS011;19751;40.274;18.268;2023-02-22T06:29:59;107.10;;;62.40;;
33403;SDS011;19751;40.274;18.268;2023-02-22T06:32:26;142.05;;;78.38;;
33403;SDS011;19751;40.274;18.268;2023-02-22T06:34:52;225.27;;;129.70;;
33403;SDS011;19751;40.274;18.268;2023-02-22T06:37:18;285.42;;;162.70;;
33403;SDS011;19751;40.274;18.268;2023-02-22T06:39:44;178.85;;;100.63;;
33403;SDS011;19751;40.274;18.268;2023-02-22T06:42:09;91.50;;;55.10;;
33403;SDS011;19751;40.274;18.268;2023-02-22T06:44:35;52.33;;;34.55;;
33403;SDS011;19751;40.274;18.268;2023-02-22T06:47:00;51.38;;;31.35;;
33403;SDS011;19751;40.274;18.268;2023-02-22T06:49:26;45.72;;;29.92;;
33403;SDS011;19751;40.274;18.268;2023-02-22T06:51:52;43.85;;;28.25;;
33403;SDS011;19751;40.274;18.268;2023-02-22T06:54:18;45.63;;;27.23;;
33403;SDS011;19751;40.274;18.268;2023-02-22T06:56:45;42.60;;;27.38;;
33403;SDS011;19751;40.274;18.268;2023-02-22T06:59:10;40.45;;;26.60;;
33403;SDS011;19751;40.274;18.268;2023-02-22T07:01:36;46.60;;;28.08;;
33403;SDS011;19751;40.274;18.268;2023-02-22T07:04:04;44.95;;;26.70;;
33403;SDS011;19751;40.274;18.268;2023-02-22T07:06:29;42.97;;;27.40;;
33403;SDS011;19751;40.274;18.268;2023-02-22T07:08:55;43.10;;;27.10;;
33403;SDS011;19751;40.274;18.268;2023-02-22T07:11:20;44.03;;;26.52;;
33403;SDS011;19751;40.274;18.268;2023-02-22T07:13:45;39.63;;;25.38;;
33403;SDS011;19751;40.274;18.268;2023-02-22T07:16:11;37.20;;;25.63;;
33403;SDS011;19751;40.274;18.268;2023-02-22T07:18:36;40.65;;;25.02;;
33403;SDS011;19751;40.274;18.268;2023-02-22T07:21:02;38.58;;;26.15;;
33403;SDS011;19751;40.274;18.268;2023-02-22T07:23:28;39.05;;;26.52;;
33403;SDS011;19751;40.274;18.268;2023-02-22T07:25:54;41.75;;;25.88;;
33403;SDS011;19751;40.274;18.268;2023-02-22T07:28:19;37.50;;;25.45;;
33403;SDS011;19751;40.274;18.268;2023-02-22T07:30:45;35.90;;;24.48;;
33403;SDS011;19751;40.274;18.268;2023-02-22T07:33:11;39.22;;;25.20;;
33403;SDS011;19751;40.274;18.268;2023-02-22T07:35:47;38.45;;;26.10;;
33403;SDS011;19751;40.274;18.268;2023-02-22T07:38:15;36.97;;;25.23;;
33403;SDS011;19751;40.274;18.268;2023-02-22T07:40:42;37.85;;;25.17;;
33403;SDS011;19751;40.274;18.268;2023-02-22T07:45:39;40.05;;;25.50;;
33403;SDS011;19751;40.274;18.268;2023-02-22T07:48:04;36.95;;;25.38;;
33403;SDS011;19751;40.274;18.268;2023-02-22T07:50:31;40.28;;;23.40;;
33403;SDS011;19751;40.274;18.268;2023-02-22T07:52:59;38.53;;;24.90;;
33403;SDS011;19751;40.274;18.268;2023-02-22T07:55:27;35.97;;;24.25;;
33403;SDS011;19751;40.274;18.268;2023-02-22T07:57:57;39.78;;;24.80;;
33403;SDS011;19751;40.274;18.268;2023-02-22T08:00:39;30.73;;;21.02;;
33403;SDS011;19751;40.274;18.268;2023-02-22T08:03:07;34.45;;;23.30;;
33403;SDS011;19751;40.274;18.268;2023-02-22T08:05:35;31.15;;;19.73;;
33403;SDS011;19751;40.274;18.268;2023-02-22T08:08:02;24.35;;;17.80;;
33403;SDS011;19751;40.274;18.268;2023-02-22T08:10:28;20.38;;;14.43;;
33403;SDS011;19751;40.274;18.268;2023-02-22T08:12:55;17.05;;;12.93;;
33403;SDS011;19751;40.274;18.268;2023-02-22T08:15:22;19.70;;;14.10;;
33403;SDS011;19751;40.274;18.268;2023-02-22T08:17:50;40.58;;;14.73;;
33403;SDS011;19751;40.274;18.268;2023-02-22T08:20:15;17.50;;;12.27;;
33403;SDS011;19751;40.274;18.268;2023-02-22T08:22:42;14.40;;;11.15;;
33403;SDS011;19751;40.274;18.268;2023-02-22T08:25:08;16.67;;;9.75;;
33403;SDS011;19751;40.274;18.268;2023-02-22T08:27:34;16.45;;;9.05;;
33403;SDS011;19751;40.274;18.268;2023-02-22T08:29:59;14.15;;;9.57;;
33403;SDS011;19751;40.274;18.268;2023-02-22T08:32:25;10.23;;;8.15;;
33403;SDS011;19751;40.274;18.268;2023-02-22T08:34:51;11.80;;;8.15;;
33403;SDS011;19751;40.274;18.268;2023-02-22T08:37:16;15.90;;;7.90;;
33403;SDS011;19751;40.274;18.268;2023-02-22T08:39:43;8.52;;;7.53;;
33403;SDS011;19751;40.274;18.268;2023-02-22T08:42:09;7.38;;;6.22;;
33403;SDS011;19751;40.274;18.268;2023-02-22T08:44:35;8.55;;;6.68;;
33403;SDS011;19751;40.274;18.268;2023-02-22T08:47:01;11.00;;;7.18;;
33403;SDS011;19751;40.274;18.268;2023-02-22T08:49:26;11.00;;;7.82;;
33403;SDS011;19751;40.274;18.268;2023-02-22T08:51:52;10.43;;;7.40;;
33403;SDS011;19751;40.274;18.268;2023-02-22T08:54:17;7.63;;;6.68;;
33403;SDS011;19751;40.274;18.268;2023-02-22T08:56:43;8.73;;;6.95;;
33403;SDS011;19751;40.274;18.268;2023-02-22T08:59:09;10.98;;;7.13;;
33403;SDS011;19751;40.274;18.268;2023-02-22T09:01:35;9.07;;;6.75;;
33403;SDS011;19751;40.274;18.268;2023-02-22T09:04:00;9.20;;;7.55;;
33403;SDS011;19751;40.274;18.268;2023-02-22T09:06:26;8.75;;;6.65;;
33403;SDS011;19751;40.274;18.268;2023-02-22T09:08:53;14.93;;;8.20;;
33403;SDS011;19751;40.274;18.268;2023-02-22T09:11:18;8.73;;;7.13;;
33403;SDS011;19751;40.274;18.268;2023-02-22T09:13:44;10.23;;;7.10;;
33403;SDS011;19751;40.274;18.268;2023-02-22T09:16:09;12.43;;;9.23;;
33403;SDS011;19751;40.274;18.268;2023-02-22T09:18:35;15.98;;;9.25;;
33403;SDS011;19751;40.274;18.268;2023-02-22T09:21:01;11.75;;;8.63;;
33403;SDS011;19751;40.274;18.268;2023-02-22T09:23:27;10.38;;;7.10;;
33403;SDS011;19751;40.274;18.268;2023-02-22T09:25:52;11.15;;;7.90;;
33403;SDS011;19751;40.274;18.268;2023-02-22T09:28:18;10.38;;;7.90;;
33403;SDS011;19751;40.274;18.268;2023-02-22T09:30:43;11.27;;;8.35;;
33403;SDS011;19751;40.274;18.268;2023-02-22T09:33:13;10.77;;;7.13;;
33403;SDS011;19751;40.274;18.268;2023-02-22T09:35:41;9.15;;;7.25;;
33403;SDS011;19751;40.274;18.268;2023-02-22T09:38:10;9.57;;;7.35;;
33403;SDS011;19751;40.274;18.268;2023-02-22T09:40:48;9.32;;;7.47;;
33403;SDS011;19751;40.274;18.268;2023-02-22T09:48:29;9.23;;;6.72;;
33403;SDS011;19751;40.274;18.268;2023-02-22T09:50:57;9.38;;;6.38;;
33403;SDS011;19751;40.274;18.268;2023-02-22T09:56:07;7.85;;;7.05;;
33403;SDS011;19751;40.274;18.268;2023-02-22T10:03:46;7.53;;;5.32;;
33403;SDS011;19751;40.274;18.268;2023-02-22T10:06:31;7.07;;;5.65;;
33403;SDS011;19751;40.274;18.268;2023-02-22T10:08:59;7.80;;;5.38;;
33403;SDS011;19751;40.274;18.268;2023-02-22T10:12:22;7.43;;;5.85;;
33403;SDS011;19751;40.274;18.268;2023-02-22T10:25:30;8.68;;;6.43;;
33403;SDS011;19751;40.274;18.268;2023-02-22T10:28:07;9.00;;;6.05;;
33403;SDS011;19751;40.274;18.268;2023-02-22T10:30:43;6.40;;;5.70;;
33403;SDS011;19751;40.274;18.268;2023-02-22T10:35:56;7.03;;;5.38;;
33403;SDS011;19751;40.274;18.268;2023-02-22T10:38:29;8.23;;;6.20;;
33403;SDS011;19751;40.274;18.268;2023-02-22T10:40:59;5.05;;;4.55;;
33403;SDS011;19751;40.274;18.268;2023-02-22T10:43:39;7.47;;;5.20;;
33403;SDS011;19751;40.274;18.268;2023-02-22T10:46:09;5.75;;;4.57;;
33403;SDS011;19751;40.274;18.268;2023-02-22T10:48:39;5.80;;;5.00;;
33403;SDS011;19751;40.274;18.268;2023-02-22T10:51:09;6.68;;;5.97;;
33403;SDS011;19751;40.274;18.268;2023-02-22T10:53:35;6.95;;;5.35;;
33403;SDS011;19751;40.274;18.268;2023-02-22T11:03:57;6.05;;;4.97;;
33403;SDS011;19751;40.274;18.268;2023-02-22T11:06:49;5.35;;;4.57;;
33403;SDS011;19751;40.274;18.268;2023-02-22T11:09:44;5.65;;;5.05;;
33403;SDS011;19751;40.274;18.268;2023-02-22T11:12:16;6.95;;;4.57;;
33403;SDS011;19751;40.274;18.268;2023-02-22T11:14:45;7.90;;;4.90;;
33403;SDS011;19751;40.274;18.268;2023-02-22T11:17:12;10.23;;;5.15;;
33403;SDS011;19751;40.274;18.268;2023-02-22T11:19:46;5.75;;;4.72;;
33403;SDS011;19751;40.274;18.268;2023-02-22T11:22:18;7.55;;;5.22;;
33403;SDS011;19751;40.274;18.268;2023-02-22T11:24:56;7.13;;;4.78;;
33403;SDS011;19751;40.274;18.268;2023-02-22T11:27:31;7.22;;;5.15;;
33403;SDS011;19751;40.274;18.268;2023-02-22T11:30:09;7.55;;;6.40;;
33403;SDS011;19751;40.274;18.268;2023-02-22T11:32:45;6.88;;;5.15;;
33403;SDS011;19751;40.274;18.268;2023-02-22T11:35:19;5.70;;;4.95;;
33403;SDS011;19751;40.274;18.268;2023-02-22T11:38:14;6.63;;;5.72;;
33403;SDS011;19751;40.274;18.268;2023-02-22T11:40:43;5.13;;;4.22;;
33403;SDS011;19751;40.274;18.268;2023-02-22T11:43:16;7.45;;;5.72;;
33403;SDS011;19751;40.274;18.268;2023-02-22T11:45:56;5.90;;;4.97;;
33403;SDS011;19751;40.274;18.268;2023-02-22T11:48:25;5.22;;;4.25;;
33403;SDS011;19751;40.274;18.268;2023-02-22T11:59:11;6.57;;;4.80;;
33403;SDS011;19751;40.274;18.268;2023-02-22T12:09:46;9.38;;;7.57;;
33403;SDS011;19751;40.274;18.268;2023-02-22T12:15:02;12.95;;;8.80;;
33403;SDS011;19751;40.274;18.268;2023-02-22T12:20:24;10.13;;;7.25;;
33403;SDS011;19751;40.274;18.268;2023-02-22T12:23:01;8.07;;;6.97;;
33403;SDS011;19751;40.274;18.268;2023-02-22T12:25:34;8.85;;;6.65;;
33403;SDS011;19751;40.274;18.268;2023-02-22T12:30:40;8.82;;;6.80;;
33403;SDS011;19751;40.274;18.268;2023-02-22T12:33:20;8.50;;;6.35;;
33403;SDS011;19751;40.274;18.268;2023-02-22T12:35:52;9.23;;;5.78;;
33403;SDS011;19751;40.274;18.268;2023-02-22T12:38:27;8.55;;;6.35;;
33403;SDS011;19751;40.274;18.268;2023-02-22T12:43:59;8.68;;;5.65;;
33403;SDS011;19751;40.274;18.268;2023-02-22T12:46:41;7.88;;;6.03;;
33403;SDS011;19751;40.274;18.268;2023-02-22T12:54:45;8.88;;;5.43;;
33403;SDS011;19751;40.274;18.268;2023-02-22T13:00:18;9.18;;;6.60;;
33403;SDS011;19751;40.274;18.268;2023-02-22T13:03:00;7.38;;;6.07;;
33403;SDS011;19751;40.274;18.268;2023-02-22T13:05:32;13.35;;;7.95;;
33403;SDS011;19751;40.274;18.268;2023-02-22T13:11:09;10.80;;;6.18;;
33403;SDS011;19751;40.274;18.268;2023-02-22T13:13:47;7.30;;;6.18;;
33403;SDS011;19751;40.274;18.268;2023-02-22T13:16:35;6.50;;;5.07;;
33403;SDS011;19751;40.274;18.268;2023-02-22T13:24:48;8.50;;;6.47;;
33403;SDS011;19751;40.274;18.268;2023-02-22T13:30:19;9.55;;;6.53;;
33403;SDS011;19751;40.274;18.268;2023-02-22T13:32:58;9.40;;;7.53;;
33403;SDS011;19751;40.274;18.268;2023-02-22T13:46:40;11.07;;;6.00;;
33403;SDS011;19751;40.274;18.268;2023-02-22T13:52:05;10.18;;;7.05;;
33403;SDS011;19751;40.274;18.268;2023-02-22T13:57:20;13.27;;;8.38;;
33403;SDS011;19751;40.274;18.268;2023-02-22T13:59:48;10.27;;;7.40;;
33403;SDS011;19751;40.274;18.268;2023-02-22T14:10:58;9.57;;;6.95;;
33403;SDS011;19751;40.274;18.268;2023-02-22T14:13:28;10.23;;;7.07;;
33403;SDS011;19751;40.274;18.268;2023-02-22T14:23:34;6.00;;;5.35;;
33403;SDS011;19751;40.274;18.268;2023-02-22T14:28:50;8.27;;;6.05;;
33403;SDS011;19751;40.274;18.268;2023-02-22T14:31:23;11.57;;;6.90;;
33403;SDS011;19751;40.274;18.268;2023-02-22T14:36:41;8.25;;;6.18;;
33403;SDS011;19751;40.274;18.268;2023-02-22T14:39:18;9.38;;;5.95;;
33403;SDS011;19751;40.274;18.268;2023-02-22T14:47:14;13.70;;;8.35;;
33403;SDS011;19751;40.274;18.268;2023-02-22T14:49:45;9.45;;;6.40;;
33403;SDS011;19751;40.274;18.268;2023-02-22T14:52:23;9.80;;;6.50;;
33403;SDS011;19751;40.274;18.268;2023-02-22T14:54:52;8.20;;;6.18;;
33403;SDS011;19751;40.274;18.268;2023-02-22T15:00:14;7.43;;;5.45;;
33403;SDS011;19751;40.274;18.268;2023-02-22T15:02:54;7.65;;;5.47;;
33403;SDS011;19751;40.274;18.268;2023-02-22T15:05:23;6.47;;;5.60;;
33403;SDS011;19751;40.274;18.268;2023-02-22T15:08:01;7.28;;;5.40;;
33403;SDS011;19751;40.274;18.268;2023-02-22T15:13:01;5.38;;;4.45;;
33403;SDS011;19751;40.274;18.268;2023-02-22T15:18:16;8.73;;;5.15;;
33403;SDS011;19751;40.274;18.268;2023-02-22T15:20:45;8.43;;;6.28;;
33403;SDS011;19751;40.274;18.268;2023-02-22T15:23:14;7.68;;;6.13;;
33403;SDS011;19751;40.274;18.268;2023-02-22T15:25:40;8.25;;;6.43;;
33403;SDS011;19751;40.274;18.268;2023-02-22T15:28:13;8.10;;;5.32;;
33403;SDS011;19751;40.274;18.268;2023-02-22T15:30:39;6.78;;;5.30;;
33403;SDS011;19751;40.274;18.268;2023-02-22T15:33:09;7.10;;;5.25;;
33403;SDS011;19751;40.274;18.268;2023-02-22T15:35:40;7.68;;;5.82;;
33403;SDS011;19751;40.274;18.268;2023-02-22T15:40:38;5.07;;;4.57;;
33403;SDS011;19751;40.274;18.268;2023-02-22T15:43:20;6.88;;;5.88;;
33403;SDS011;19751;40.274;18.268;2023-02-22T15:45:52;7.15;;;5.57;;
33403;SDS011;19751;40.274;18.268;2023-02-22T15:48:19;5.45;;;4.95;;
33403;SDS011;19751;40.274;18.268;2023-02-22T15:50:58;9.23;;;6.72;;
33403;SDS011;19751;40.274;18.268;2023-02-22T15:53:36;9.15;;;6.10;;
33403;SDS011;19751;40.274;18.268;2023-02-22T15:56:17;5.25;;;4.75;;
33403;SDS011;19751;40.274;18.268;2023-02-22T15:58:49;6.55;;;5.75;;
33403;SDS011;19751;40.274;18.268;2023-02-22T16:01:22;6.25;;;5.65;;
33403;SDS011;19751;40.274;18.268;2023-02-22T16:03:49;7.95;;;5.15;;
33403;SDS011;19751;40.274;18.268;2023-02-22T16:06:33;6.43;;;4.88;;
33403;SDS011;19751;40.274;18.268;2023-02-22T16:09:06;6.70;;;5.40;;
33403;SDS011;19751;40.274;18.268;2023-02-22T16:11:35;5.47;;;4.95;;
33403;SDS011;19751;40.274;18.268;2023-02-22T16:14:05;6.05;;;5.25;;
33403;SDS011;19751;40.274;18.268;2023-02-22T16:16:48;4.60;;;4.20;;
33403;SDS011;19751;40.274;18.268;2023-02-22T16:21:49;6.50;;;4.35;;
33403;SDS011;19751;40.274;18.268;2023-02-22T16:24:27;5.18;;;3.67;;
33403;SDS011;19751;40.274;18.268;2023-02-22T16:27:05;5.90;;;4.70;;
33403;SDS011;19751;40.274;18.268;2023-02-22T16:29:40;5.20;;;4.15;;
33403;SDS011;19751;40.274;18.268;2023-02-22T16:32:06;6.65;;;4.55;;
33403;SDS011;19751;40.274;18.268;2023-02-22T16:34:32;4.80;;;4.30;;
33403;SDS011;19751;40.274;18.268;2023-02-22T16:36:58;5.93;;;4.60;;
33403;SDS011;19751;40.274;18.268;2023-02-22T16:39:29;8.65;;;6.25;;
33403;SDS011;19751;40.274;18.268;2023-02-22T16:41:59;10.55;;;6.72;;
33403;SDS011;19751;40.274;18.268;2023-02-22T16:44:27;16.63;;;9.20;;
33403;SDS011;19751;40.274;18.268;2023-02-22T16:46:54;19.63;;;12.70;;
33403;SDS011;19751;40.274;18.268;2023-02-22T16:49:21;19.45;;;13.10;;
33403;SDS011;19751;40.274;18.268;2023-02-22T16:51:55;16.15;;;11.68;;
33403;SDS011;19751;40.274;18.268;2023-02-22T16:54:26;17.90;;;11.35;;
33403;SDS011;19751;40.274;18.268;2023-02-22T16:56:54;14.30;;;10.18;;
33403;SDS011;19751;40.274;18.268;2023-02-22T16:59:26;12.40;;;8.57;;
33403;SDS011;19751;40.274;18.268;2023-02-22T17:01:52;11.45;;;8.77;;
33403;SDS011;19751;40.274;18.268;2023-02-22T17:04:19;9.32;;;8.40;;
33403;SDS011;19751;40.274;18.268;2023-02-22T17:06:47;9.43;;;8.13;;
33403;SDS011;19751;40.274;18.268;2023-02-22T17:09:13;12.50;;;9.95;;
33403;SDS011;19751;40.274;18.268;2023-02-22T17:11:44;12.65;;;9.80;;
33403;SDS011;19751;40.274;18.268;2023-02-22T17:14:15;12.02;;;8.90;;
33403;SDS011;19751;40.274;18.268;2023-02-22T17:16:42;17.13;;;9.85;;
33403;SDS011;19751;40.274;18.268;2023-02-22T17:19:14;11.55;;;8.05;;
33403;SDS011;19751;40.274;18.268;2023-02-22T17:21:41;13.38;;;10.57;;
33403;SDS011;19751;40.274;18.268;2023-02-22T17:24:09;28.08;;;17.30;;
33403;SDS011;19751;40.274;18.268;2023-02-22T17:26:36;36.80;;;21.95;;
33403;SDS011;19751;40.274;18.268;2023-02-22T17:29:01;37.65;;;22.75;;
33403;SDS011;19751;40.274;18.268;2023-02-22T17:31:27;30.60;;;20.17;;
33403;SDS011;19751;40.274;18.268;2023-02-22T17:33:55;24.17;;;16.55;;
33403;SDS011;19751;40.274;18.268;2023-02-22T17:36:28;21.00;;;14.20;;